createdAt,value
2023-03-02T00:01:09.568Z,102626.69
2023-03-02T00:03:39.134Z,102617.28
2023-03-02T00:06:07.334Z,102624.69
2023-03-02T00:08:34.819Z,102629.47
2023-03-02T00:11:01.898Z,102620.88
2023-03-02T00:13:32.507Z,102620.41
2023-03-02T00:15:59.061Z,102615.84
2023-03-02T00:18:25.694Z,102617.34
2023-03-02T00:20:52.165Z,102612.88
2023-03-02T00:23:19.078Z,102612.13
2023-03-02T00:25:45.637Z,102613.22
2023-03-02T00:28:12.169Z,102606.47
2023-03-02T00:30:39.347Z,102609.41
2023-03-02T00:33:05.882Z,102605.25
2023-03-02T00:35:37.391Z,102613.53
2023-03-02T00:38:03.891Z,102612.00
2023-03-02T00:40:30.515Z,102607.09
2023-03-02T00:42:56.934Z,102614.94
2023-03-02T00:45:23.510Z,102609.72
2023-03-02T00:47:50.049Z,102605.25
2023-03-02T00:50:16.847Z,102608.19
2023-03-02T00:52:43.444Z,102606.66
2023-03-02T00:55:09.982Z,102607.41
2023-03-02T00:57:36.807Z,102606.97
2023-03-02T01:00:10.447Z,102607.72
2023-03-02T01:02:43.998Z,102612.50
2023-03-02T01:05:14.559Z,102602.81
2023-03-02T01:07:41.046Z,102609.91
2023-03-02T01:10:08.067Z,102609.13
2023-03-02T01:12:34.869Z,102602.38
2023-03-02T01:15:02.140Z,102602.69
2023-03-02T01:17:28.791Z,102604.84
2023-03-02T01:19:56.313Z,102607.47
2023-03-02T01:22:23.231Z,102596.22
2023-03-02T01:24:50.224Z,102605.94
2023-03-02T01:27:16.847Z,102603.31
2023-03-02T01:29:43.432Z,102598.84
2023-03-02T01:32:09.975Z,102597.31
2023-03-02T01:34:37.980Z,102593.16
2023-03-02T01:37:05.965Z,102589.47
2023-03-02T01:39:32.396Z,102587.94
2023-03-02T01:41:58.819Z,102577.78
2023-03-02T01:44:40.696Z,102577.78
2023-03-02T01:47:18.100Z,102576.69
2023-03-02T01:49:56.977Z,102588.25
2023-03-02T01:52:26.139Z,102579.94
2023-03-02T01:54:57.163Z,102581.03
2023-03-02T01:57:30.457Z,102583.50
2023-03-02T02:00:01.823Z,102584.59
2023-03-02T02:02:41.856Z,102586.44
2023-03-02T02:05:11.946Z,102584.91
2023-03-02T02:07:39.690Z,102581.09
2023-03-02T02:10:07.839Z,102582.16
2023-03-02T02:12:34.676Z,102582.47
2023-03-02T02:15:02.208Z,102576.81
2023-03-02T02:17:30.084Z,102576.34
2023-03-02T02:20:07.148Z,102573.41
2023-03-02T02:22:49.014Z,102564.03
2023-03-02T02:25:24.651Z,102562.50
2023-03-02T02:27:51.647Z,102565.88
2023-03-02T02:30:20.926Z,102567.75
2023-03-02T02:32:49.636Z,102556.50
2023-03-02T02:35:24.421Z,102567.75
2023-03-02T02:37:55.468Z,102570.34
2023-03-02T02:40:40.279Z,102568.06
2023-03-02T02:43:12.547Z,102561.31
2023-03-02T02:45:39.334Z,102564.66
2023-03-02T02:48:08.820Z,102550.09
2023-03-02T02:50:35.839Z,102557.94
2023-03-02T02:53:16.143Z,102552.72
2023-03-02T02:55:44.173Z,102550.09
2023-03-02T02:58:27.589Z,102554.56
2023-03-02T03:00:55.316Z,102545.50
2023-03-02T03:03:32.441Z,102547.03
2023-03-02T03:06:05.669Z,102539.50
2023-03-02T03:08:41.337Z,102547.66
2023-03-02T03:11:24.303Z,102552.44
2023-03-02T03:14:13.393Z,102542.28
2023-03-02T03:16:42.092Z,102548.59
2023-03-02T03:19:20.943Z,102548.59
2023-03-02T03:21:51.456Z,102542.94
2023-03-02T03:24:19.318Z,102542.47
2023-03-02T03:26:47.339Z,102537.25
2023-03-02T03:29:15.702Z,102533.88
2023-03-02T03:31:42.594Z,102531.56
2023-03-02T03:34:10.086Z,102528.63
2023-03-02T03:36:37.425Z,102528.94
2023-03-02T03:39:05.678Z,102526.66
2023-03-02T03:41:33.039Z,102532.19
2023-03-02T03:44:00.014Z,102531.44
2023-03-02T03:46:28.723Z,102525.44
2023-03-02T03:48:55.741Z,102535.13
2023-03-02T03:51:23.592Z,102536.97
2023-03-02T03:53:59.699Z,102538.81
2023-03-02T03:56:34.038Z,102536.53
2023-03-02T03:59:07.713Z,102536.84
2023-03-02T04:01:45.877Z,102540.22
2023-03-02T04:04:15.943Z,102541.31
2023-03-02T04:06:43.216Z,102539.44
2023-03-02T04:09:12.063Z,102542.84
2023-03-02T04:11:41.365Z,102547.44
2023-03-02T04:14:09.000Z,102547.13
2023-03-02T04:16:36.705Z,102542.66
2023-03-02T04:19:04.704Z,102542.34
2023-03-02T04:21:31.454Z,102533.28
2023-03-02T04:23:58.023Z,102530.97
2023-03-02T04:26:26.164Z,102538.06
2023-03-02T04:28:52.823Z,102537.28
2023-03-02T04:31:20.311Z,102536.53
2023-03-02T04:33:46.985Z,102542.50
2023-03-02T04:36:13.742Z,102538.38
2023-03-02T04:38:40.449Z,102543.59
2023-03-02T04:41:07.994Z,102540.97
2023-03-02T04:43:34.666Z,102543.59
2023-03-02T04:46:01.347Z,102541.31
2023-03-02T04:48:27.986Z,102543.47
2023-03-02T04:50:54.526Z,102543.00
2023-03-02T04:53:21.112Z,102542.56
2023-03-02T04:55:47.813Z,102544.72
2023-03-02T04:58:14.819Z,102543.50
2023-03-02T05:00:41.436Z,102549.81
2023-03-02T05:03:08.198Z,102550.13
2023-03-02T05:05:34.943Z,102532.47
2023-03-02T05:08:01.508Z,102532.78
2023-03-02T05:10:28.261Z,102538.34
2023-03-02T05:12:55.183Z,102530.81
2023-03-02T05:15:23.070Z,102534.50
2023-03-02T05:17:49.635Z,102529.59
2023-03-02T05:20:17.398Z,102534.69
2023-03-02T05:22:44.013Z,102536.53
2023-03-02T05:25:11.598Z,102529.75
2023-03-02T05:27:38.457Z,102529.31
2023-03-02T05:30:06.420Z,102528.84
2023-03-02T05:32:32.989Z,102533.31
2023-03-02T05:34:59.523Z,102532.88
2023-03-02T05:37:25.952Z,102530.25
2023-03-02T05:39:52.787Z,102530.25
2023-03-02T05:42:19.222Z,102524.56
2023-03-02T05:44:45.722Z,102530.88
2023-03-02T05:47:12.288Z,102530.09
2023-03-02T05:49:38.993Z,102527.03
2023-03-02T05:52:05.630Z,102525.50
2023-03-02T05:54:32.265Z,102522.44
2023-03-02T05:56:58.866Z,102523.22
2023-03-02T05:59:25.343Z,102527.97
2023-03-02T06:01:58.467Z,102531.66
2023-03-02T06:04:25.972Z,102536.13
2023-03-02T06:06:52.703Z,102546.56
2023-03-02T06:09:19.352Z,102541.66
2023-03-02T06:11:45.996Z,102534.59
2023-03-02T06:14:12.545Z,102541.66
2023-03-02T06:16:39.210Z,102542.75
2023-03-02T06:19:05.828Z,102550.56
2023-03-02T06:21:32.508Z,102550.25
2023-03-02T06:23:58.966Z,102556.09
2023-03-02T06:26:25.532Z,102558.41
2023-03-02T06:28:53.898Z,102558.72
2023-03-02T06:31:21.497Z,102549.34
2023-03-02T06:33:48.088Z,102560.56
2023-03-02T06:36:16.865Z,102561.34
2023-03-02T06:38:43.387Z,102558.72
2023-03-02T06:41:10.076Z,102562.88
2023-03-02T06:43:36.641Z,102566.25
2023-03-02T06:46:03.210Z,102563.31
2023-03-02T06:48:29.654Z,102576.06
2023-03-02T06:50:56.062Z,102563.78
2023-03-02T06:53:23.348Z,102566.09
2023-03-02T06:55:50.718Z,102565.00
2023-03-02T06:58:17.385Z,102565.47
2023-03-02T07:00:44.106Z,102572.22
2023-03-02T07:03:10.640Z,102576.06
2023-03-02T07:05:37.417Z,102566.81
2023-03-02T07:08:04.190Z,102581.88
2023-03-02T07:10:30.792Z,102579.72
2023-03-02T07:12:57.349Z,102585.41
2023-03-02T07:15:23.822Z,102583.25
2023-03-02T07:17:50.245Z,102570.63
2023-03-02T07:20:18.584Z,102576.78
2023-03-02T07:22:45.476Z,102575.06
2023-03-02T07:25:12.597Z,102575.63
2023-03-02T07:27:39.504Z,102577.13
2023-03-02T07:30:07.123Z,102580.34
2023-03-02T07:32:33.901Z,102571.88
2023-03-02T07:35:00.477Z,102573.22
2023-03-02T07:37:27.023Z,102567.81
2023-03-02T07:39:54.352Z,102566.53
2023-03-02T07:42:20.993Z,102571.56
2023-03-02T07:44:54.402Z,102564.75
2023-03-02T07:47:21.192Z,102564.72
2023-03-02T07:49:47.712Z,102563.44
2023-03-02T07:52:15.047Z,102565.41
2023-03-02T07:54:41.531Z,102572.88
2023-03-02T07:57:10.817Z,102563.28
2023-03-02T07:59:37.251Z,102559.41
2023-03-02T08:02:03.739Z,102570.56
2023-03-02T08:04:30.373Z,102572.78
2023-03-02T08:06:56.858Z,102570.44
2023-03-02T08:09:23.343Z,102571.41
2023-03-02T08:11:53.139Z,102568.28
2023-03-02T08:14:19.634Z,102567.44
2023-03-02T08:16:46.225Z,102561.97
2023-03-02T08:19:13.006Z,102570.09
2023-03-02T08:21:39.646Z,102565.09
2023-03-02T08:24:06.464Z,102562.78
2023-03-02T08:26:33.564Z,102562.69
2023-03-02T08:29:00.174Z,102564.44
2023-03-02T08:31:26.773Z,102559.09
2023-03-02T08:33:53.553Z,102558.88
2023-03-02T08:36:20.295Z,102563.34
2023-03-02T08:38:47.968Z,102567.38
2023-03-02T08:41:20.280Z,102566.50
2023-03-02T08:43:47.439Z,102562.25
2023-03-02T08:46:17.468Z,102568.88
2023-03-02T08:48:44.236Z,102573.13
2023-03-02T08:51:17.022Z,102568.84
2023-03-02T08:53:46.271Z,102567.97
2023-03-02T08:56:19.387Z,102567.84
2023-03-02T08:58:47.127Z,102572.09
2023-03-02T09:01:29.726Z,102569.88
2023-03-02T09:03:57.652Z,102569.53
2023-03-02T09:06:24.268Z,102567.03
2023-03-02T09:08:51.400Z,102559.78
2023-03-02T09:11:18.374Z,102560.72
2023-03-02T09:13:44.917Z,102559.16
2023-03-02T09:16:13.151Z,102559.75
2023-03-02T09:18:40.242Z,102560.06
2023-03-02T09:21:06.706Z,102559.41
2023-03-02T09:23:35.407Z,102561.47
2023-03-02T09:26:02.644Z,102563.66
2023-03-02T09:28:29.496Z,102569.09
2023-03-02T09:31:01.269Z,102565.13
2023-03-02T09:33:30.530Z,102564.53
2023-03-02T09:35:57.348Z,102567.69
2023-03-02T09:38:24.387Z,102559.53
2023-03-02T09:40:59.756Z,102566.81
2023-03-02T09:43:38.493Z,102569.63
2023-03-02T09:46:23.450Z,102571.25
2023-03-02T09:49:11.865Z,102567.09
2023-03-02T09:52:16.600Z,102565.72
2023-03-02T09:54:43.302Z,102562.06
2023-03-02T09:57:25.448Z,102566.78
2023-03-02T10:00:18.163Z,102559.47
2023-03-02T10:02:47.973Z,102570.59
2023-03-02T10:05:24.659Z,102567.75
2023-03-02T10:07:51.506Z,102569.75
2023-03-02T10:10:22.838Z,102571.09
2023-03-02T10:13:18.431Z,102573.47
2023-03-02T10:16:08.146Z,102572.44
2023-03-02T10:18:45.601Z,102576.81
2023-03-02T10:21:12.087Z,102567.22
2023-03-02T10:24:00.975Z,102565.56
2023-03-02T10:26:41.113Z,102561.53
2023-03-02T10:29:18.681Z,102555.56
2023-03-02T10:31:47.064Z,102568.47
2023-03-02T10:34:14.237Z,102562.88
2023-03-02T10:36:44.690Z,102562.31
2023-03-02T10:39:14.176Z,102560.63
2023-03-02T10:41:53.217Z,102558.88
2023-03-02T10:44:19.722Z,102553.66
2023-03-02T10:46:47.044Z,102547.75
2023-03-02T10:49:24.134Z,102556.09
2023-03-02T10:52:18.545Z,102550.53
2023-03-02T10:54:45.625Z,102544.25
2023-03-02T10:57:37.077Z,102545.94
2023-03-02T11:00:24.771Z,102547.09
2023-03-02T11:02:52.495Z,102535.50
2023-03-02T11:05:23.844Z,102540.53
2023-03-02T11:08:00.479Z,102529.38
2023-03-02T11:10:36.625Z,102533.59
2023-03-02T11:13:16.526Z,102532.97
2023-03-02T11:15:51.239Z,102521.81
2023-03-02T11:18:30.925Z,102528.38
2023-03-02T11:21:08.323Z,102524.63
2023-03-02T11:24:04.155Z,102523.19
2023-03-02T11:26:37.414Z,102506.63
2023-03-02T11:29:28.700Z,102515.00
2023-03-02T11:32:01.170Z,102511.66
2023-03-02T11:34:49.390Z,102499.66
2023-03-02T11:37:15.821Z,102504.59
2023-03-02T11:39:54.964Z,102503.16
2023-03-02T11:42:28.499Z,102492.63
2023-03-02T11:44:55.291Z,102491.19
2023-03-02T11:47:23.078Z,102496.16
2023-03-02T11:49:55.976Z,102491.63
2023-03-02T11:52:26.142Z,102492.75
2023-03-02T11:55:06.280Z,102489.41
2023-03-02T11:57:40.056Z,102490.19
2023-03-02T12:00:21.826Z,102483.81
2023-03-02T12:02:58.903Z,102477.44
2023-03-02T12:05:28.721Z,102471.09
2023-03-02T12:07:58.788Z,102480.94
2023-03-02T12:10:33.059Z,102480.59
2023-03-02T12:13:23.247Z,102476.06
2023-03-02T12:15:50.740Z,102467.81
2023-03-02T12:18:23.151Z,102474.28
2023-03-02T12:21:04.682Z,102469.00
2023-03-02T12:23:34.298Z,102462.97
2023-03-02T12:26:24.617Z,102456.19
2023-03-02T12:29:09.591Z,102461.88
2023-03-02T12:31:56.739Z,102451.31
2023-03-02T12:34:38.109Z,102449.03
2023-03-02T12:37:16.158Z,102456.59
2023-03-02T12:40:03.855Z,102452.47
2023-03-02T12:42:42.303Z,102445.69
2023-03-02T12:45:27.051Z,102445.00
2023-03-02T12:48:14.437Z,102438.22
2023-03-02T12:50:41.819Z,102439.00
2023-03-02T12:53:18.664Z,102439.72
2023-03-02T12:55:46.153Z,102439.38
2023-03-02T12:58:21.098Z,102440.88
2023-03-02T13:00:59.560Z,102440.50
2023-03-02T13:03:28.669Z,102437.50
2023-03-02T13:06:13.723Z,102429.16
2023-03-02T13:08:44.606Z,102428.41
2023-03-02T13:11:12.148Z,102428.44
2023-03-02T13:13:40.408Z,102424.28
2023-03-02T13:16:20.960Z,102422.38
2023-03-02T13:18:49.762Z,102410.66
2023-03-02T13:21:18.858Z,102411.78
2023-03-02T13:23:48.741Z,102415.22
2023-03-02T13:26:34.204Z,102401.56
2023-03-02T13:29:03.583Z,102400.41
2023-03-02T13:31:31.927Z,102397.38
2023-03-02T13:33:59.417Z,102397.38
2023-03-02T13:36:29.302Z,102406.47
2023-03-02T13:38:59.270Z,102403.84
2023-03-02T13:41:31.963Z,102401.19
2023-03-02T13:43:59.507Z,102416.72
2023-03-02T13:46:35.718Z,102402.69
2023-03-02T13:49:10.782Z,102406.84
2023-03-02T13:51:46.642Z,102408.00
2023-03-02T13:54:22.150Z,102405.72
2023-03-02T13:56:51.202Z,102399.28
2023-03-02T13:59:19.919Z,102405.72
2023-03-02T14:01:46.945Z,102404.22
2023-03-02T14:04:17.508Z,102400.78
2023-03-02T14:06:45.026Z,102396.25
2023-03-02T14:09:11.623Z,102395.88
2023-03-02T14:11:42.028Z,102390.97
2023-03-02T14:14:14.316Z,102386.41
2023-03-02T14:16:41.531Z,102390.19
2023-03-02T14:19:10.634Z,102384.13
2023-03-02T14:21:37.281Z,102389.81
2023-03-02T14:24:03.939Z,102377.72
2023-03-02T14:26:45.584Z,102381.88
2023-03-02T14:29:31.556Z,102376.19
2023-03-02T14:32:06.550Z,102378.47
2023-03-02T14:34:36.113Z,102377.31
2023-03-02T14:37:10.944Z,102373.53
2023-03-02T14:39:39.877Z,102365.97
2023-03-02T14:42:12.342Z,102371.25
2023-03-02T14:44:39.358Z,102369.78
2023-03-02T14:47:05.909Z,102369.00
2023-03-02T14:49:32.681Z,102368.25
2023-03-02T14:52:05.504Z,102359.91
2023-03-02T14:54:39.879Z,102355.38
2023-03-02T14:57:16.914Z,102359.91
2023-03-02T14:59:43.409Z,102361.81
2023-03-02T15:02:24.268Z,102350.06
2023-03-02T15:04:56.018Z,102352.34
2023-03-02T15:07:23.871Z,102356.88
2023-03-02T15:09:50.432Z,102351.59
2023-03-02T15:12:16.876Z,102356.50
2023-03-02T15:14:43.974Z,102359.16
2023-03-02T15:17:10.698Z,102346.66
2023-03-02T15:19:37.169Z,102348.56
2023-03-02T15:22:04.604Z,102354.22
2023-03-02T15:24:33.247Z,102338.72
2023-03-02T15:27:00.185Z,102349.31
2023-03-02T15:29:26.704Z,102345.50
2023-03-02T15:31:53.438Z,102344.38
2023-03-02T15:34:20.077Z,102343.25
2023-03-02T15:36:46.531Z,102345.50
2023-03-02T15:39:14.363Z,102342.88
2023-03-02T15:41:42.263Z,102341.75
2023-03-02T15:44:17.252Z,102342.13
2023-03-02T15:46:43.755Z,102338.31
2023-03-02T15:49:10.270Z,102337.56
2023-03-02T15:51:36.777Z,102339.44
2023-03-02T15:54:03.336Z,102337.91
2023-03-02T15:56:38.751Z,102347.00
2023-03-02T15:59:10.121Z,102340.94
2023-03-02T16:01:36.836Z,102337.91
2023-03-02T16:04:03.314Z,102350.75
2023-03-02T16:06:30.290Z,102355.66
2023-03-02T16:08:56.813Z,102348.47
2023-03-02T16:11:23.396Z,102359.44
2023-03-02T16:13:52.179Z,102352.25
2023-03-02T16:16:20.593Z,102353.00
2023-03-02T16:18:58.431Z,102361.34
2023-03-02T16:21:28.405Z,102357.91
2023-03-02T16:23:56.297Z,102357.13
2023-03-02T16:26:23.048Z,102371.47
2023-03-02T16:28:49.555Z,102361.66
2023-03-02T16:31:19.043Z,102369.56
2023-03-02T16:33:47.185Z,102367.66
2023-03-02T16:36:14.621Z,102367.59
2023-03-02T16:38:41.760Z,102369.13
2023-03-02T16:41:20.380Z,102369.84
2023-03-02T16:43:49.956Z,102374.34
2023-03-02T16:46:17.381Z,102377.34
2023-03-02T16:48:45.222Z,102379.97
2023-03-02T16:51:12.465Z,102387.09
2023-03-02T16:53:40.686Z,102387.06
2023-03-02T16:56:11.856Z,102390.44
2023-03-02T16:58:39.712Z,102389.66
2023-03-02T17:01:07.986Z,102391.88
2023-03-02T17:03:35.126Z,102402.75
2023-03-02T17:06:01.890Z,102395.53
2023-03-02T17:08:28.466Z,102403.03
2023-03-02T17:10:54.950Z,102400.72
2023-03-02T17:13:21.380Z,102406.69
2023-03-02T17:15:48.048Z,102409.69
2023-03-02T17:18:17.219Z,102417.19
2023-03-02T17:20:43.785Z,102422.81
2023-03-02T17:23:12.323Z,102422.38
2023-03-02T17:25:39.572Z,102418.94
2023-03-02T17:28:06.512Z,102433.22
2023-03-02T17:30:33.092Z,102429.38
2023-03-02T17:32:59.575Z,102434.22
2023-03-02T17:35:26.374Z,102431.16
2023-03-02T17:37:53.191Z,102442.03
2023-03-02T17:40:19.869Z,102437.09
2023-03-02T17:42:46.371Z,102444.56
2023-03-02T17:45:21.303Z,102440.00
2023-03-02T17:47:50.137Z,102444.81
2023-03-02T17:50:17.040Z,102453.06
2023-03-02T17:52:43.966Z,102449.59
2023-03-02T17:55:11.844Z,102455.22
2023-03-02T17:57:38.377Z,102458.94
2023-03-02T18:00:09.764Z,102458.88
2023-03-02T18:02:36.278Z,102467.50
2023-03-02T18:05:04.065Z,102470.44
2023-03-02T18:07:30.515Z,102477.53
2023-03-02T18:09:56.997Z,102480.88
2023-03-02T18:12:23.504Z,102491.75
2023-03-02T18:14:49.985Z,102487.19
2023-03-02T18:17:16.710Z,102491.63
2023-03-02T18:19:43.187Z,102488.22
2023-03-02T18:22:10.107Z,102496.06
2023-03-02T18:24:36.551Z,102497.88
2023-03-02T18:27:03.006Z,102499.69
2023-03-02T18:29:29.510Z,102505.66
2023-03-02T18:31:56.068Z,102504.84
2023-03-02T18:34:22.594Z,102511.19
2023-03-02T18:36:49.074Z,102504.72
2023-03-02T18:39:18.367Z,102507.66
2023-03-02T18:41:44.794Z,102508.34
2023-03-02T18:44:11.352Z,102508.28
2023-03-02T18:46:45.545Z,102517.69
2023-03-02T18:49:12.050Z,102510.84
2023-03-02T18:51:38.565Z,102522.06
2023-03-02T18:54:05.048Z,102518.59
2023-03-02T18:56:31.529Z,102529.09
2023-03-02T18:58:58.026Z,102519.25
2023-03-02T19:01:24.457Z,102524.78
2023-03-02T19:03:50.914Z,102514.94
2023-03-02T19:06:17.561Z,102520.91
2023-03-02T19:08:44.090Z,102515.56
2023-03-02T19:11:11.648Z,102515.50
2023-03-02T19:13:38.188Z,102523.38
2023-03-02T19:16:05.130Z,102513.53
2023-03-02T19:18:31.771Z,102521.34
2023-03-02T19:20:58.358Z,102529.59
2023-03-02T19:23:25.084Z,102528.44
2023-03-02T19:25:52.171Z,102529.13
2023-03-02T19:28:19.076Z,102534.31
2023-03-02T19:30:45.519Z,102525.56
2023-03-02T19:33:12.074Z,102531.53
2023-03-02T19:35:38.865Z,102532.56
2023-03-02T19:38:06.598Z,102537.00
2023-03-02T19:40:34.369Z,102532.41
2023-03-02T19:43:01.135Z,102536.88
2023-03-02T19:45:30.170Z,102535.28
2023-03-02T19:47:57.814Z,102535.19
2023-03-02T19:50:26.187Z,102535.13
2023-03-02T19:52:54.689Z,102542.94
2023-03-02T19:55:22.247Z,102543.63
2023-03-02T19:57:59.274Z,102545.06
2023-03-02T20:00:27.873Z,102544.63
2023-03-02T20:02:54.541Z,102538.53
2023-03-02T20:05:21.131Z,102539.97
2023-03-02T20:07:47.698Z,102540.66
2023-03-02T20:10:45.697Z,102543.97
2023-03-02T20:13:12.948Z,102539.78
2023-03-02T20:15:44.230Z,102532.56
2023-03-02T20:18:17.400Z,102542.22
2023-03-02T20:20:45.101Z,102548.59
2023-03-02T20:23:12.189Z,102540.63
2023-03-02T20:25:38.739Z,102542.06
2023-03-02T20:28:07.488Z,102548.75
2023-03-02T20:30:40.959Z,102546.81
2023-03-02T20:33:08.311Z,102547.50
2023-03-02T20:35:39.847Z,102547.41
2023-03-02T20:38:10.269Z,102548.09
2023-03-02T20:40:37.180Z,102548.00
2023-03-02T20:43:05.463Z,102547.56
2023-03-02T20:45:32.683Z,102544.19
2023-03-02T20:47:59.211Z,102544.88
2023-03-02T20:50:29.340Z,102542.16
2023-03-02T20:52:55.902Z,102540.97
2023-03-02T20:55:22.643Z,102538.69
2023-03-02T20:57:49.145Z,102544.28
2023-03-02T21:00:20.683Z,102538.59
2023-03-02T21:02:48.432Z,102541.13
2023-03-02T21:05:16.837Z,102550.47
2023-03-02T21:07:44.468Z,102556.81
2023-03-02T21:10:15.156Z,102557.91
2023-03-02T21:12:42.940Z,102557.81
2023-03-02T21:15:10.450Z,102557.72
2023-03-02T21:17:36.919Z,102555.78
2023-03-02T21:20:05.107Z,102556.44
2023-03-02T21:22:31.626Z,102565.00
2023-03-02T21:24:58.154Z,102563.47
2023-03-02T21:27:24.686Z,102568.66
2023-03-02T21:29:51.189Z,102570.84
2023-03-02T21:32:17.861Z,102565.94
2023-03-02T21:34:44.825Z,102563.66
2023-03-02T21:37:11.392Z,102565.50
2023-03-02T21:39:38.127Z,102561.69
2023-03-02T21:42:04.776Z,102563.88
2023-03-02T21:44:32.079Z,102554.81
2023-03-02T21:46:58.570Z,102551.00
2023-03-02T21:49:25.043Z,102544.22
2023-03-02T21:51:51.570Z,102548.59
2023-03-02T21:54:18.092Z,102545.53
2023-03-02T21:56:44.680Z,102552.22
2023-03-02T21:59:11.986Z,102543.91
2023-03-02T22:01:38.542Z,102549.50
2023-03-02T22:04:05.585Z,102554.31
2023-03-02T22:06:34.298Z,102555.75
2023-03-02T22:09:01.543Z,102550.06
2023-03-02T22:11:31.898Z,102551.16
2023-03-02T22:14:10.418Z,102545.47
2023-03-02T22:16:43.125Z,102551.09
2023-03-02T22:19:26.798Z,102559.31
2023-03-02T22:21:59.911Z,102565.97
2023-03-02T22:24:32.414Z,102564.47
2023-03-02T22:27:27.090Z,102569.38
2023-03-02T22:29:57.672Z,102573.09
2023-03-02T22:32:28.026Z,102579.44
2023-03-02T22:34:57.081Z,102575.63
2023-03-02T22:37:26.877Z,102571.78
2023-03-02T22:39:55.654Z,102577.38
2023-03-02T22:42:24.851Z,102571.69
2023-03-02T22:45:26.409Z,102562.63
2023-03-02T22:47:53.983Z,102563.28
2023-03-02T22:50:26.798Z,102562.84
2023-03-02T22:52:55.535Z,102561.66
2023-03-02T22:55:35.395Z,102567.56
2023-03-02T22:58:20.528Z,102562.19
2023-03-02T23:00:47.880Z,102558.38
2023-03-02T23:03:19.590Z,102561.34
2023-03-02T23:05:49.185Z,102560.47
2023-03-02T23:08:28.527Z,102579.94
2023-03-02T23:10:58.463Z,102574.59
2023-03-02T23:13:40.518Z,102572.31
2023-03-02T23:16:21.939Z,102573.72
2023-03-02T23:18:49.524Z,102568.38
2023-03-02T23:21:49.524Z,102572.09
2023-03-02T23:24:18.840Z,102570.88
2023-03-02T23:26:45.426Z,102567.72
2023-03-02T23:29:12.079Z,102570.66
2023-03-02T23:31:38.627Z,102571.31
2023-03-02T23:34:05.465Z,102569.34
2023-03-02T23:36:32.026Z,102567.81
2023-03-02T23:38:58.669Z,102568.47
2023-03-02T23:41:25.262Z,102569.91
2023-03-02T23:43:51.862Z,102561.91
2023-03-02T23:46:18.432Z,102564.88
2023-03-02T23:48:44.873Z,102562.59
2023-03-02T23:51:11.671Z,102565.88
2023-03-02T23:53:38.103Z,102564.69
2023-03-02T23:56:04.822Z,102566.84
2023-03-02T23:58:31.411Z,102570.91
